sensor_id;sensor_type;location;lat;lon;timestamp;pressure;altitude;pressure_sealevel;temperature;humidity
75699;BME280;64313;51.018;13.742;2024-03-08T00:00:12;100274.84;;;3.19;60.91
75699;BME280;64313;51.018;13.742;2024-03-08T00:02:38;100267.25;;;3.16;61.10
75699;BME280;64313;51.018;13.742;2024-03-08T00:05:05;100253.50;;;3.12;61.02
75699;BME280;64313;51.018;13.742;2024-03-08T00:07:30;100258.22;;;3.09;61.53
75699;BME280;64313;51.018;13.742;2024-03-08T00:09:56;100255.75;;;3.07;61.99
75699;BME280;64313;51.018;13.742;2024-03-08T00:12:21;100253.41;;;3.04;61.32
75699;BME280;64313;51.018;13.742;2024-03-08T00:14:46;100250.09;;;3.02;61.90
75699;BME280;64313;51.018;13.742;2024-03-08T00:17:12;100252.03;;;3.00;61.27
75699;BME280;64313;51.018;13.742;2024-03-08T00:19:37;100251.53;;;2.96;61.14
75699;BME280;64313;51.018;13.742;2024-03-08T00:22:02;100260.38;;;2.95;61.35
75699;BME280;64313;51.018;13.742;2024-03-08T00:24:28;100255.25;;;2.94;61.57
75699;BME280;64313;51.018;13.742;2024-03-08T00:26:54;100255.56;;;2.91;61.37
75699;BME280;64313;51.018;13.742;2024-03-08T00:29:19;100269.16;;;2.86;62.33
75699;BME280;64313;51.018;13.742;2024-03-08T00:31:45;100256.25;;;2.83;62.53
75699;BME280;64313;51.018;13.742;2024-03-08T00:34:10;100256.72;;;2.79;62.03
75699;BME280;64313;51.018;13.742;2024-03-08T00:36:36;100251.72;;;2.76;62.72
75699;BME280;64313;51.018;13.742;2024-03-08T00:39:02;100256.47;;;2.72;62.11
75699;BME280;64313;51.018;13.742;2024-03-08T00:41:31;100257.72;;;2.68;61.53
75699;BME280;64313;51.018;13.742;2024-03-08T00:43:56;100260.50;;;2.66;62.82
75699;BME280;64313;51.018;13.742;2024-03-08T00:46:22;100259.09;;;2.62;63.35
75699;BME280;64313;51.018;13.742;2024-03-08T00:48:47;100254.28;;;2.58;63.28
75699;BME280;64313;51.018;13.742;2024-03-08T00:51:12;100252.91;;;2.54;63.25
75699;BME280;64313;51.018;13.742;2024-03-08T00:53:38;100249.72;;;2.50;63.06
75699;BME280;64313;51.018;13.742;2024-03-08T00:56:03;100251.81;;;2.47;63.79
75699;BME280;64313;51.018;13.742;2024-03-08T00:58:30;100250.44;;;2.42;63.59
75699;BME280;64313;51.018;13.742;2024-03-08T01:00:55;100250.84;;;2.38;63.61
75699;BME280;64313;51.018;13.742;2024-03-08T01:03:22;100252.66;;;2.37;63.39
75699;BME280;64313;51.018;13.742;2024-03-08T01:05:47;100245.06;;;2.34;63.30
75699;BME280;64313;51.018;13.742;2024-03-08T01:08:12;100247.00;;;2.32;62.97
75699;BME280;64313;51.018;13.742;2024-03-08T01:10:38;100250.59;;;2.31;62.97
75699;BME280;64313;51.018;13.742;2024-03-08T01:13:03;100239.22;;;2.31;63.91
75699;BME280;64313;51.018;13.742;2024-03-08T01:15:29;100237.72;;;2.28;63.39
75699;BME280;64313;51.018;13.742;2024-03-08T01:17:54;100238.56;;;2.29;63.33
75699;BME280;64313;51.018;13.742;2024-03-08T01:20:19;100236.06;;;2.27;63.16
75699;BME280;64313;51.018;13.742;2024-03-08T01:22:46;100231.78;;;2.26;63.90
75699;BME280;64313;51.018;13.742;2024-03-08T01:25:11;100227.47;;;2.25;63.48
75699;BME280;64313;51.018;13.742;2024-03-08T01:27:36;100228.59;;;2.23;63.47
75699;BME280;64313;51.018;13.742;2024-03-08T01:30:03;100233.03;;;2.22;63.75
75699;BME280;64313;51.018;13.742;2024-03-08T01:32:29;100217.53;;;2.19;64.37
75699;BME280;64313;51.018;13.742;2024-03-08T01:34:54;100213.22;;;2.18;64.39
75699;BME280;64313;51.018;13.742;2024-03-08T01:37:19;100210.88;;;2.15;64.11
75699;BME280;64313;51.018;13.742;2024-03-08T01:39:45;100213.53;;;2.15;64.65
75699;BME280;64313;51.018;13.742;2024-03-08T01:42:10;100203.16;;;2.13;64.04
75699;BME280;64313;51.018;13.742;2024-03-08T01:44:38;100199.81;;;2.11;64.27
75699;BME280;64313;51.018;13.742;2024-03-08T01:47:04;100195.53;;;2.10;63.93
75699;BME280;64313;51.018;13.742;2024-03-08T01:49:30;100196.50;;;2.09;64.61
75699;BME280;64313;51.018;13.742;2024-03-08T01:51:56;100192.06;;;2.10;64.39
75699;BME280;64313;51.018;13.742;2024-03-08T01:54:22;100193.03;;;2.09;63.91
75699;BME280;64313;51.018;13.742;2024-03-08T01:56:48;100187.09;;;2.07;64.05
75699;BME280;64313;51.018;13.742;2024-03-08T01:59:14;100188.19;;;2.04;64.95
75699;BME280;64313;51.018;13.742;2024-03-08T02:01:39;100189.16;;;2.03;64.27
75699;BME280;64313;51.018;13.742;2024-03-08T02:04:05;100186.94;;;1.99;64.74
75699;BME280;64313;51.018;13.742;2024-03-08T02:06:32;100190.03;;;1.94;64.84
75699;BME280;64313;51.018;13.742;2024-03-08T02:08:57;100183.38;;;1.90;65.06
75699;BME280;64313;51.018;13.742;2024-03-08T02:11:23;100179.22;;;1.87;64.58
75699;BME280;64313;51.018;13.742;2024-03-08T02:13:48;100184.63;;;1.86;64.68
75699;BME280;64313;51.018;13.742;2024-03-08T02:16:20;100181.16;;;1.85;64.25
75699;BME280;64313;51.018;13.742;2024-03-08T02:18:45;100179.50;;;1.84;64.32
75699;BME280;64313;51.018;13.742;2024-03-08T02:21:10;100186.72;;;1.82;65.24
75699;BME280;64313;51.018;13.742;2024-03-08T02:23:36;100175.38;;;1.82;65.08
75699;BME280;64313;51.018;13.742;2024-03-08T02:26:02;100168.44;;;1.81;65.05
75699;BME280;64313;51.018;13.742;2024-03-08T02:28:30;100172.03;;;1.80;64.81
75699;BME280;64313;51.018;13.742;2024-03-08T02:30:55;100173.81;;;1.79;64.92
75699;BME280;64313;51.018;13.742;2024-03-08T02:33:22;100169.53;;;1.78;65.22
75699;BME280;64313;51.018;13.742;2024-03-08T02:35:48;100168.03;;;1.76;64.71
75699;BME280;64313;51.018;13.742;2024-03-08T02:38:14;100168.84;;;1.76;65.23
75699;BME280;64313;51.018;13.742;2024-03-08T02:40:44;100163.59;;;1.76;64.55
75699;BME280;64313;51.018;13.742;2024-03-08T02:43:10;100168.19;;;1.74;65.17
75699;BME280;64313;51.018;13.742;2024-03-08T02:45:36;100163.88;;;1.73;65.28
75699;BME280;64313;51.018;13.742;2024-03-08T02:48:02;100164.16;;;1.70;65.10
75699;BME280;64313;51.018;13.742;2024-03-08T02:50:27;100162.50;;;1.69;64.97
75699;BME280;64313;51.018;13.742;2024-03-08T02:52:53;100160.03;;;1.68;64.73
75699;BME280;64313;51.018;13.742;2024-03-08T02:55:19;100165.28;;;1.68;65.13
75699;BME280;64313;51.018;13.742;2024-03-08T02:57:45;100163.75;;;1.65;65.01
75699;BME280;64313;51.018;13.742;2024-03-08T03:00:12;100151.56;;;1.64;64.74
75699;BME280;64313;51.018;13.742;2024-03-08T03:02:38;100163.88;;;1.63;64.43
75699;BME280;64313;51.018;13.742;2024-03-08T03:05:04;100158.78;;;1.62;64.78
75699;BME280;64313;51.018;13.742;2024-03-08T03:07:32;100152.81;;;1.60;64.91
75699;BME280;64313;51.018;13.742;2024-03-08T03:09:59;100147.69;;;1.58;64.98
75699;BME280;64313;51.018;13.742;2024-03-08T03:12:26;100148.00;;;1.55;65.21
75699;BME280;64313;51.018;13.742;2024-03-08T03:14:52;100157.78;;;1.53;65.60
75699;BME280;64313;51.018;13.742;2024-03-08T03:17:17;100151.03;;;1.51;64.78
75699;BME280;64313;51.018;13.742;2024-03-08T03:19:42;100149.38;;;1.50;65.57
75699;BME280;64313;51.018;13.742;2024-03-08T03:22:08;100146.88;;;1.48;65.35
75699;BME280;64313;51.018;13.742;2024-03-08T03:24:34;100149.91;;;1.44;65.31
75699;BME280;64313;51.018;13.742;2024-03-08T03:27:06;100141.31;;;1.42;65.66
75699;BME280;64313;51.018;13.742;2024-03-08T03:29:39;100148.53;;;1.40;64.90
75699;BME280;64313;51.018;13.742;2024-03-08T03:32:05;100142.59;;;1.38;65.65
75699;BME280;64313;51.018;13.742;2024-03-08T03:34:33;100143.81;;;1.33;65.49
75699;BME280;64313;51.018;13.742;2024-03-08T03:37:00;100141.34;;;1.32;65.69
75699;BME280;64313;51.018;13.742;2024-03-08T03:39:27;100146.75;;;1.30;66.01
75699;BME280;64313;51.018;13.742;2024-03-08T03:41:56;100144.13;;;1.30;65.63
75699;BME280;64313;51.018;13.742;2024-03-08T03:44:21;100140.09;;;1.26;66.41
75699;BME280;64313;51.018;13.742;2024-03-08T03:46:48;100141.19;;;1.24;65.98
75699;BME280;64313;51.018;13.742;2024-03-08T03:49:15;100139.56;;;1.23;66.21
75699;BME280;64313;51.018;13.742;2024-03-08T03:51:41;100139.66;;;1.21;66.20
75699;BME280;64313;51.018;13.742;2024-03-08T03:54:06;100131.09;;;1.19;66.07
75699;BME280;64313;51.018;13.742;2024-03-08T03:56:32;100134.00;;;1.16;66.07
75699;BME280;64313;51.018;13.742;2024-03-08T03:58:58;100137.72;;;1.14;66.17
75699;BME280;64313;51.018;13.742;2024-03-08T04:01:23;100136.91;;;1.13;66.18
75699;BME280;64313;51.018;13.742;2024-03-08T04:03:49;100128.34;;;1.11;66.07
75699;BME280;64313;51.018;13.742;2024-03-08T04:06:14;100130.25;;;1.09;66.56
75699;BME280;64313;51.018;13.742;2024-03-08T04:08:40;100127.75;;;1.07;66.04
75699;BME280;64313;51.018;13.742;2024-03-08T04:11:06;100127.91;;;1.06;66.36
75699;BME280;64313;51.018;13.742;2024-03-08T04:13:33;100123.63;;;1.05;66.07
75699;BME280;64313;51.018;13.742;2024-03-08T04:15:58;100121.81;;;1.05;66.48
75699;BME280;64313;51.018;13.742;2024-03-08T04:18:24;100127.22;;;1.04;66.06
75699;BME280;64313;51.018;13.742;2024-03-08T04:20:49;100125.53;;;1.03;66.04
75699;BME280;64313;51.018;13.742;2024-03-08T04:23:15;100127.47;;;1.01;66.85
75699;BME280;64313;51.018;13.742;2024-03-08T04:25:41;100131.91;;;1.00;66.10
75699;BME280;64313;51.018;13.742;2024-03-08T04:28:07;100133.72;;;1.00;66.63
75699;BME280;64313;51.018;13.742;2024-03-08T04:30:33;100123.34;;;0.98;66.80
75699;BME280;64313;51.018;13.742;2024-03-08T04:32:58;100131.38;;;0.97;66.87
75699;BME280;64313;51.018;13.742;2024-03-08T04:35:23;100121.13;;;0.94;66.66
75699;BME280;64313;51.018;13.742;2024-03-08T04:37:49;100123.06;;;0.92;66.87
75699;BME280;64313;51.018;13.742;2024-03-08T04:40:14;100121.50;;;0.89;66.35
75699;BME280;64313;51.018;13.742;2024-03-08T04:42:40;100119.03;;;0.88;67.01
75699;BME280;64313;51.018;13.742;2024-03-08T04:45:09;100119.88;;;0.88;66.82
75699;BME280;64313;51.018;13.742;2024-03-08T04:47:36;100129.81;;;0.85;66.74
75699;BME280;64313;51.018;13.742;2024-03-08T04:50:02;100126.47;;;0.82;66.70
75699;BME280;64313;51.018;13.742;2024-03-08T04:52:27;100125.09;;;0.78;66.87
75699;BME280;64313;51.018;13.742;2024-03-08T04:54:53;100122.59;;;0.77;66.95
75699;BME280;64313;51.018;13.742;2024-03-08T04:57:18;100125.34;;;0.75;67.20
75699;BME280;64313;51.018;13.742;2024-03-08T04:59:44;100118.44;;;0.74;67.01
75699;BME280;64313;51.018;13.742;2024-03-08T05:02:09;100116.81;;;0.73;67.07
75699;BME280;64313;51.018;13.742;2024-03-08T05:04:34;100106.44;;;0.72;67.29
75699;BME280;64313;51.018;13.742;2024-03-08T05:07:00;100115.16;;;0.72;67.37
75699;BME280;64313;51.018;13.742;2024-03-08T05:09:26;100112.53;;;0.72;67.91
75699;BME280;64313;51.018;13.742;2024-03-08T05:11:51;100105.63;;;0.71;67.12
75699;BME280;64313;51.018;13.742;2024-03-08T05:14:16;100110.97;;;0.70;67.42
75699;BME280;64313;51.018;13.742;2024-03-08T05:16:43;100108.34;;;0.70;67.49
75699;BME280;64313;51.018;13.742;2024-03-08T05:19:08;100112.09;;;0.67;67.71
75699;BME280;64313;51.018;13.742;2024-03-08T05:21:33;100111.25;;;0.67;67.61
75699;BME280;64313;51.018;13.742;2024-03-08T05:23:59;100108.78;;;0.65;67.31
75699;BME280;64313;51.018;13.742;2024-03-08T05:26:24;100106.97;;;0.66;68.01
75699;BME280;64313;51.018;13.742;2024-03-08T05:28:49;100101.84;;;0.64;67.85
75699;BME280;64313;51.018;13.742;2024-03-08T05:31:20;100101.84;;;0.64;67.59
75699;BME280;64313;51.018;13.742;2024-03-08T05:33:47;100104.47;;;0.64;67.91
75699;BME280;64313;51.018;13.742;2024-03-08T05:36:12;100108.06;;;0.63;67.61
75699;BME280;64313;51.018;13.742;2024-03-08T05:38:40;100105.56;;;0.62;67.57
75699;BME280;64313;51.018;13.742;2024-03-08T05:41:07;100100.47;;;0.60;68.13
75699;BME280;64313;51.018;13.742;2024-03-08T05:43:33;100095.22;;;0.60;68.00
75699;BME280;64313;51.018;13.742;2024-03-08T05:45:58;100094.38;;;0.60;67.89
75699;BME280;64313;51.018;13.742;2024-03-08T05:48:23;100103.91;;;0.61;67.83
75699;BME280;64313;51.018;13.742;2024-03-08T05:50:50;100091.78;;;0.60;68.17
75699;BME280;64313;51.018;13.742;2024-03-08T05:53:15;100088.16;;;0.61;67.32
75699;BME280;64313;51.018;13.742;2024-03-08T05:55:43;100103.09;;;0.60;67.74
75699;BME280;64313;51.018;13.742;2024-03-08T05:58:08;100094.25;;;0.61;68.03
75699;BME280;64313;51.018;13.742;2024-03-08T06:00:34;100097.69;;;0.62;67.86
75699;BME280;64313;51.018;13.742;2024-03-08T06:03:01;100101.97;;;0.63;68.10
75699;BME280;64313;51.018;13.742;2024-03-08T06:05:26;100107.22;;;0.63;67.95
75699;BME280;64313;51.018;13.742;2024-03-08T06:07:52;100103.63;;;0.64;67.97
75699;BME280;64313;51.018;13.742;2024-03-08T06:10:18;100111.50;;;0.64;67.93
75699;BME280;64313;51.018;13.742;2024-03-08T06:12:44;100114.97;;;0.64;68.03
75699;BME280;64313;51.018;13.742;2024-03-08T06:15:10;100107.94;;;0.65;67.89
75699;BME280;64313;51.018;13.742;2024-03-08T06:17:43;100097.44;;;0.65;68.35
75699;BME280;64313;51.018;13.742;2024-03-08T06:20:08;100110.28;;;0.68;68.21
75699;BME280;64313;51.018;13.742;2024-03-08T06:22:41;100108.34;;;0.70;68.11
75699;BME280;64313;51.018;13.742;2024-03-08T06:25:10;100101.31;;;0.70;68.01
75699;BME280;64313;51.018;13.742;2024-03-08T06:27:41;100105.47;;;0.73;68.85
75699;BME280;64313;51.018;13.742;2024-03-08T06:30:08;100102.69;;;0.74;68.73
75699;BME280;64313;51.018;13.742;2024-03-08T06:32:35;100097.06;;;0.79;68.57
75699;BME280;64313;51.018;13.742;2024-03-08T06:35:04;100091.66;;;0.80;68.40
75699;BME280;64313;51.018;13.742;2024-03-08T06:37:33;100097.19;;;0.87;68.55
75699;BME280;64313;51.018;13.742;2024-03-08T06:39:59;100089.06;;;0.90;68.69
75699;BME280;64313;51.018;13.742;2024-03-08T06:42:26;100086.00;;;0.95;68.55
75699;BME280;64313;51.018;13.742;2024-03-08T06:44:51;100089.22;;;0.98;68.24
75699;BME280;64313;51.018;13.742;2024-03-08T06:47:21;100088.22;;;0.99;68.33
75699;BME280;64313;51.018;13.742;2024-03-08T06:49:50;100087.94;;;1.02;68.02
75699;BME280;64313;51.018;13.742;2024-03-08T06:52:17;100093.75;;;1.06;68.66
75699;BME280;64313;51.018;13.742;2024-03-08T06:54:42;100083.94;;;1.08;68.41
75699;BME280;64313;51.018;13.742;2024-03-08T06:57:07;100087.28;;;1.10;68.37
75699;BME280;64313;51.018;13.742;2024-03-08T06:59:35;100089.63;;;1.13;68.24
75699;BME280;64313;51.018;13.742;2024-03-08T07:02:01;100081.47;;;1.16;68.48
75699;BME280;64313;51.018;13.742;2024-03-08T07:04:26;100082.69;;;1.22;68.83
75699;BME280;64313;51.018;13.742;2024-03-08T07:06:55;100084.91;;;1.26;68.90
75699;BME280;64313;51.018;13.742;2024-03-08T07:09:20;100076.47;;;1.32;68.10
75699;BME280;64313;51.018;13.742;2024-03-08T07:11:46;100070.00;;;1.37;68.28
75699;BME280;64313;51.018;13.742;2024-03-08T07:14:12;100076.59;;;1.41;69.01
75699;BME280;64313;51.018;13.742;2024-03-08T07:16:38;100074.38;;;1.46;69.14
75699;BME280;64313;51.018;13.742;2024-03-08T07:19:04;100072.03;;;1.52;68.68
75699;BME280;64313;51.018;13.742;2024-03-08T07:21:30;100077.69;;;1.57;69.16
75699;BME280;64313;51.018;13.742;2024-03-08T07:23:56;100074.66;;;1.62;68.97
75699;BME280;64313;51.018;13.742;2024-03-08T07:26:27;100068.13;;;1.66;68.80
75699;BME280;64313;51.018;13.742;2024-03-08T07:28:53;100069.38;;;1.72;68.80
75699;BME280;64313;51.018;13.742;2024-03-08T07:31:20;100063.69;;;1.76;68.46
75699;BME280;64313;51.018;13.742;2024-03-08T07:34:00;100064.78;;;1.83;68.31
75699;BME280;64313;51.018;13.742;2024-03-08T07:36:25;100067.66;;;1.90;68.16
75699;BME280;64313;51.018;13.742;2024-03-08T07:38:50;100065.28;;;1.97;67.74
75699;BME280;64313;51.018;13.742;2024-03-08T07:41:16;100062.22;;;2.01;68.13
75699;BME280;64313;51.018;13.742;2024-03-08T07:43:41;100060.81;;;2.07;68.11
75699;BME280;64313;51.018;13.742;2024-03-08T07:46:09;100057.47;;;2.14;67.39
75699;BME280;64313;51.018;13.742;2024-03-08T07:48:36;100056.72;;;2.22;67.93
75699;BME280;64313;51.018;13.742;2024-03-08T07:51:02;100047.28;;;2.29;67.13
75699;BME280;64313;51.018;13.742;2024-03-08T07:53:28;100057.22;;;2.35;67.80
75699;BME280;64313;51.018;13.742;2024-03-08T07:55:56;100048.75;;;2.41;66.76
75699;BME280;64313;51.018;13.742;2024-03-08T07:58:21;100050.78;;;2.48;67.11
75699;BME280;64313;51.018;13.742;2024-03-08T08:00:48;100055.63;;;2.52;67.47
75699;BME280;64313;51.018;13.742;2024-03-08T08:03:14;100045.31;;;2.59;66.28
75699;BME280;64313;51.018;13.742;2024-03-08T08:05:39;100045.56;;;2.65;66.75
75699;BME280;64313;51.018;13.742;2024-03-08T08:08:05;100045.94;;;2.70;66.15
75699;BME280;64313;51.018;13.742;2024-03-08T08:10:32;100042.69;;;2.77;66.49
75699;BME280;64313;51.018;13.742;2024-03-08T08:12:58;100033.22;;;2.84;64.90
75699;BME280;64313;51.018;13.742;2024-03-08T08:15:24;100040.53;;;2.90;66.62
75699;BME280;64313;51.018;13.742;2024-03-08T08:17:49;100036.44;;;2.95;66.16
75699;BME280;64313;51.018;13.742;2024-03-08T08:20:14;100024.47;;;3.01;65.95
75699;BME280;64313;51.018;13.742;2024-03-08T08:22:40;100033.59;;;3.07;65.29
75699;BME280;64313;51.018;13.742;2024-03-08T08:25:06;100023.44;;;3.12;64.93
75699;BME280;64313;51.018;13.742;2024-03-08T08:27:32;100021.84;;;3.19;64.70
75699;BME280;64313;51.018;13.742;2024-03-08T08:29:57;100020.41;;;3.24;64.63
75699;BME280;64313;51.018;13.742;2024-03-08T08:32:23;100011.88;;;3.31;65.45
75699;BME280;64313;51.018;13.742;2024-03-08T08:34:49;100017.53;;;3.36;64.97
75699;BME280;64313;51.018;13.742;2024-03-08T08:37:14;100012.59;;;3.41;64.68
75699;BME280;64313;51.018;13.742;2024-03-08T08:39:42;100018.09;;;3.47;64.82
75699;BME280;64313;51.018;13.742;2024-03-08T08:42:07;100013.72;;;3.56;65.25
75699;BME280;64313;51.018;13.742;2024-03-08T08:44:34;100013.75;;;3.64;64.94
75699;BME280;64313;51.018;13.742;2024-03-08T08:47:00;100005.06;;;3.72;64.75
75699;BME280;64313;51.018;13.742;2024-03-08T08:49:26;100000.66;;;3.80;64.27
75699;BME280;64313;51.018;13.742;2024-03-08T08:51:51;99990.31;;;3.87;63.47
75699;BME280;64313;51.018;13.742;2024-03-08T08:54:17;99996.44;;;3.96;63.60
75699;BME280;64313;51.018;13.742;2024-03-08T08:56:42;99993.00;;;4.03;63.75
75699;BME280;64313;51.018;13.742;2024-03-08T08:59:10;99989.25;;;4.14;64.09
75699;BME280;64313;51.018;13.742;2024-03-08T09:01:39;99977.91;;;4.22;62.75
75699;BME280;64313;51.018;13.742;2024-03-08T09:04:05;99983.88;;;4.32;62.40
75699;BME280;64313;51.018;13.742;2024-03-08T09:06:32;99980.25;;;4.41;62.18
75699;BME280;64313;51.018;13.742;2024-03-08T09:08:58;99978.63;;;4.48;62.47
75699;BME280;64313;51.018;13.742;2024-03-08T09:11:23;99976.00;;;4.56;60.93
75699;BME280;64313;51.018;13.742;2024-03-08T09:13:50;99972.56;;;4.64;61.29
75699;BME280;64313;51.018;13.742;2024-03-08T09:16:15;99974.38;;;4.72;61.10
75699;BME280;64313;51.018;13.742;2024-03-08T09:18:41;99978.84;;;4.79;60.44
75699;BME280;64313;51.018;13.742;2024-03-08T09:21:06;99968.44;;;4.86;60.99
75699;BME280;64313;51.018;13.742;2024-03-08T09:23:35;99966.78;;;4.93;60.01
75699;BME280;64313;51.018;13.742;2024-03-08T09:26:00;99963.50;;;4.99;61.76
75699;BME280;64313;51.018;13.742;2024-03-08T09:28:26;99966.94;;;5.08;60.25
75699;BME280;64313;51.018;13.742;2024-03-08T09:30:52;99953.88;;;5.14;60.58
75699;BME280;64313;51.018;13.742;2024-03-08T09:33:17;99960.66;;;5.25;60.02
75699;BME280;64313;51.018;13.742;2024-03-08T09:35:47;99950.75;;;5.35;60.30
75699;BME280;64313;51.018;13.742;2024-03-08T09:38:13;99950.38;;;5.47;59.09
75699;BME280;64313;51.018;13.742;2024-03-08T09:40:43;99948.53;;;5.55;59.83
75699;BME280;64313;51.018;13.742;2024-03-08T09:43:12;99944.88;;;5.64;58.55
75699;BME280;64313;51.018;13.742;2024-03-08T09:45:37;99928.97;;;5.72;58.75
75699;BME280;64313;51.018;13.742;2024-03-08T09:48:08;99930.59;;;5.82;59.49
75699;BME280;64313;51.018;13.742;2024-03-08T09:50:37;99938.19;;;5.93;57.12
75699;BME280;64313;51.018;13.742;2024-03-08T09:53:02;99940.97;;;6.00;58.68
75699;BME280;64313;51.018;13.742;2024-03-08T09:55:28;99938.09;;;6.09;56.93
75699;BME280;64313;51.018;13.742;2024-03-08T09:58:00;99925.81;;;6.16;57.06
75699;BME280;64313;51.018;13.742;2024-03-08T10:00:47;99922.13;;;6.26;56.72
75699;BME280;64313;51.018;13.742;2024-03-08T10:03:12;99924.91;;;6.32;56.93
75699;BME280;64313;51.018;13.742;2024-03-08T10:05:40;99926.03;;;6.38;56.53
75699;BME280;64313;51.018;13.742;2024-03-08T10:08:06;99908.06;;;6.48;56.25
75699;BME280;64313;51.018;13.742;2024-03-08T10:10:33;99912.50;;;6.56;56.88
75699;BME280;64313;51.018;13.742;2024-03-08T10:12:58;99908.78;;;6.65;55.26
75699;BME280;64313;51.018;13.742;2024-03-08T10:15:27;99909.53;;;6.73;54.49
75699;BME280;64313;51.018;13.742;2024-03-08T10:17:55;99906.00;;;6.81;54.94
75699;BME280;64313;51.018;13.742;2024-03-08T10:20:21;99904.47;;;6.87;54.93
75699;BME280;64313;51.018;13.742;2024-03-08T10:22:46;99901.91;;;6.93;55.71
75699;BME280;64313;51.018;13.742;2024-03-08T10:25:11;99895.06;;;6.99;54.86
75699;BME280;64313;51.018;13.742;2024-03-08T10:27:40;99890.06;;;7.04;54.51
75699;BME280;64313;51.018;13.742;2024-03-08T10:30:08;99892.00;;;7.10;53.12
75699;BME280;64313;51.018;13.742;2024-03-08T10:32:35;99883.31;;;7.16;53.80
75699;BME280;64313;51.018;13.742;2024-03-08T10:35:00;99886.25;;;7.21;55.32
75699;BME280;64313;51.018;13.742;2024-03-08T10:37:26;99891.81;;;7.26;52.79
75699;BME280;64313;51.018;13.742;2024-03-08T10:40:17;99878.63;;;7.33;53.69
75699;BME280;64313;51.018;13.742;2024-03-08T10:42:53;99873.63;;;7.38;52.37
75699;BME280;64313;51.018;13.742;2024-03-08T10:45:38;99872.88;;;7.44;52.48
75699;BME280;64313;51.018;13.742;2024-03-08T10:48:27;99867.66;;;7.51;52.64
75699;BME280;64313;51.018;13.742;2024-03-08T10:50:57;99869.59;;;7.57;51.77
75699;BME280;64313;51.018;13.742;2024-03-08T10:53:22;99862.91;;;7.61;51.95
75699;BME280;64313;51.018;13.742;2024-03-08T10:55:49;99868.31;;;7.68;51.48
75699;BME280;64313;51.018;13.742;2024-03-08T10:58:20;99855.75;;;7.76;52.36
75699;BME280;64313;51.018;13.742;2024-03-08T11:00:46;99862.56;;;7.85;51.46
75699;BME280;64313;51.018;13.742;2024-03-08T11:06:10;99857.06;;;8.02;53.16
75699;BME280;64313;51.018;13.742;2024-03-08T11:08:39;99858.13;;;8.07;50.53
75699;BME280;64313;51.018;13.742;2024-03-08T11:11:04;99859.22;;;8.13;50.36
75699;BME280;64313;51.018;13.742;2024-03-08T11:15:58;99854.59;;;8.22;52.14
75699;BME280;64313;51.018;13.742;2024-03-08T11:18:26;99843.22;;;8.28;50.68
75699;BME280;64313;51.018;13.742;2024-03-08T11:20:54;99844.09;;;8.35;49.91
75699;BME280;64313;51.018;13.742;2024-03-08T11:23:22;99829.28;;;8.40;50.98
75699;BME280;64313;51.018;13.742;2024-03-08T11:25:48;99831.16;;;8.47;49.71
75699;BME280;64313;51.018;13.742;2024-03-08T11:28:23;99820.13;;;8.50;49.22
75699;BME280;64313;51.018;13.742;2024-03-08T11:33:29;99819.00;;;8.59;49.20
75699;BME280;64313;51.018;13.742;2024-03-08T11:38:40;99810.69;;;8.68;49.88
75699;BME280;64313;51.018;13.742;2024-03-08T11:41:05;99803.97;;;8.73;48.85
75699;BME280;64313;51.018;13.742;2024-03-08T11:43:30;99806.88;;;8.78;49.42
75699;BME280;64313;51.018;13.742;2024-03-08T11:46:08;99803.81;;;8.81;49.53
75699;BME280;64313;51.018;13.742;2024-03-08T11:48:34;99790.16;;;8.84;47.49
75699;BME280;64313;51.018;13.742;2024-03-08T11:51:01;99794.06;;;8.88;48.13
75699;BME280;64313;51.018;13.742;2024-03-08T11:53:27;99783.66;;;8.93;47.99
75699;BME280;64313;51.018;13.742;2024-03-08T11:55:52;99787.78;;;8.95;47.89
75699;BME280;64313;51.018;13.742;2024-03-08T11:58:17;99775.72;;;9.00;47.95
75699;BME280;64313;51.018;13.742;2024-03-08T12:00:43;99769.00;;;9.04;49.85
75699;BME280;64313;51.018;13.742;2024-03-08T12:03:11;99772.72;;;9.09;48.25
75699;BME280;64313;51.018;13.742;2024-03-08T12:05:37;99763.94;;;9.15;47.03
75699;BME280;64313;51.018;13.742;2024-03-08T12:08:03;99759.69;;;9.21;47.23
75699;BME280;64313;51.018;13.742;2024-03-08T12:10:32;99752.94;;;9.25;46.93
75699;BME280;64313;51.018;13.742;2024-03-08T12:12:58;99765.22;;;9.33;48.73
75699;BME280;64313;51.018;13.742;2024-03-08T12:15:28;99755.63;;;9.38;48.60
75699;BME280;64313;51.018;13.742;2024-03-08T12:17:55;99749.53;;;9.44;47.13
75699;BME280;64313;51.018;13.742;2024-03-08T12:20:26;99751.81;;;9.47;47.43
75699;BME280;64313;51.018;13.742;2024-03-08T12:22:53;99748.34;;;9.54;46.51
75699;BME280;64313;51.018;13.742;2024-03-08T12:25:19;99750.38;;;9.58;45.29
75699;BME280;64313;51.018;13.742;2024-03-08T12:27:46;99744.47;;;9.63;45.92
75699;BME280;64313;51.018;13.742;2024-03-08T12:30:25;99753.69;;;9.67;46.05
75699;BME280;64313;51.018;13.742;2024-03-08T12:32:56;99745.09;;;9.71;45.53
75699;BME280;64313;51.018;13.742;2024-03-08T12:35:23;99738.34;;;9.75;45.80
75699;BME280;64313;51.018;13.742;2024-03-08T12:37:59;99727.09;;;9.80;45.97
75699;BME280;64313;51.018;13.742;2024-03-08T12:40:29;99723.00;;;9.84;46.05
75699;BME280;64313;51.018;13.742;2024-03-08T12:42:56;99723.22;;;9.89;46.22
75699;BME280;64313;51.018;13.742;2024-03-08T12:45:23;99714.00;;;9.92;44.83
75699;BME280;64313;51.018;13.742;2024-03-08T12:47:50;99706.41;;;9.95;45.20
75699;BME280;64313;51.018;13.742;2024-03-08T12:50:16;99710.31;;;9.99;44.24
75699;BME280;64313;51.018;13.742;2024-03-08T12:52:42;99703.53;;;10.03;45.46
75699;BME280;64313;51.018;13.742;2024-03-08T12:55:07;99701.31;;;10.07;46.00
75699;BME280;64313;51.018;13.742;2024-03-08T12:57:34;99699.88;;;10.11;45.55
75699;BME280;64313;51.018;13.742;2024-03-08T13:00:00;99694.94;;;10.15;46.47